createdAt,value
2022-12-14T00:02:31.240Z,96913.38
2022-12-14T00:05:34.050Z,96905.94
2022-12-14T00:08:41.513Z,96902.16
2022-12-14T00:11:45.996Z,96892.69
2022-12-14T00:14:48.690Z,96880.13
2022-12-14T00:17:51.467Z,96874.63
2022-12-14T00:20:54.151Z,96879.31
2022-12-14T00:23:59.216Z,96890.72
2022-12-14T00:27:03.224Z,96876.91
2022-12-14T00:30:07.059Z,96866.72
2022-12-14T00:33:10.352Z,96863.06
2022-12-14T00:36:14.652Z,96867.31
2022-12-14T00:39:17.341Z,96857.47
2022-12-14T00:42:21.355Z,96852.91
2022-12-14T00:45:23.947Z,96849.38
2022-12-14T00:48:28.048Z,96845.00
2022-12-14T00:51:31.325Z,96858.59
2022-12-14T00:54:33.947Z,96873.78
2022-12-14T00:57:37.988Z,96863.97
2022-12-14T01:00:41.106Z,96854.78
2022-12-14T01:03:43.863Z,96852.97
2022-12-14T01:06:47.977Z,96835.59
2022-12-14T01:09:50.587Z,96842.53
2022-12-14T01:12:54.592Z,96856.63
2022-12-14T01:15:57.266Z,96862.34
2022-12-14T01:19:01.134Z,96848.75
2022-12-14T01:22:03.787Z,96854.78
2022-12-14T01:25:07.036Z,96844.84
2022-12-14T01:28:11.304Z,96842.59
2022-12-14T01:31:15.841Z,96858.81
2022-12-14T01:34:18.694Z,96859.72
2022-12-14T01:37:22.107Z,96851.59
2022-12-14T01:40:27.622Z,96869.41
2022-12-14T01:43:48.832Z,96872.47
2022-12-14T01:46:57.812Z,96856.69
2022-12-14T01:50:06.848Z,96834.13
2022-12-14T01:53:13.408Z,96836.53
2022-12-14T01:56:17.517Z,96826.09
2022-12-14T01:59:27.629Z,96817.28
2022-12-14T02:02:31.314Z,96821.66
2022-12-14T02:05:37.860Z,96825.09
2022-12-14T02:08:45.221Z,96814.44
2022-12-14T02:11:53.530Z,96808.44
2022-12-14T02:14:58.679Z,96814.72
2022-12-14T02:18:04.748Z,96815.06
2022-12-14T02:21:22.467Z,96810.13
2022-12-14T02:24:45.569Z,96800.53
2022-12-14T02:28:15.117Z,96799.28
2022-12-14T02:31:30.098Z,96801.47
2022-12-14T02:34:42.232Z,96793.91
2022-12-14T02:37:53.684Z,96792.00
2022-12-14T02:41:07.686Z,96794.72
2022-12-14T02:44:19.393Z,96804.19
2022-12-14T02:47:29.328Z,96796.53
2022-12-14T02:50:41.156Z,96792.22
2022-12-14T02:53:48.776Z,96788.69
2022-12-14T02:56:57.258Z,96776.66
2022-12-14T03:00:04.203Z,96785.19
2022-12-14T03:03:09.508Z,96776.16
2022-12-14T03:06:25.981Z,96767.09
2022-12-14T03:09:31.335Z,96755.31
2022-12-14T03:12:34.680Z,96760.44
2022-12-14T03:15:41.881Z,96750.81
2022-12-14T03:18:52.348Z,96747.84
2022-12-14T03:21:59.175Z,96754.53
2022-12-14T03:25:08.676Z,96746.97
2022-12-14T03:28:16.760Z,96747.59
2022-12-14T03:31:23.895Z,96748.56
2022-12-14T03:34:32.947Z,96747.28
2022-12-14T03:37:41.564Z,96741.38
2022-12-14T03:40:51.881Z,96730.63
2022-12-14T03:44:06.160Z,96736.75
2022-12-14T03:47:19.563Z,96736.53
2022-12-14T03:50:26.520Z,96723.38
2022-12-14T03:53:38.491Z,96721.84
2022-12-14T03:56:52.798Z,96722.34
2022-12-14T04:00:02.972Z,96710.13
2022-12-14T04:03:13.046Z,96703.69
2022-12-14T04:06:24.332Z,96694.09
2022-12-14T04:09:34.164Z,96690.66
2022-12-14T04:12:58.742Z,96682.22
2022-12-14T04:16:27.493Z,96673.38
2022-12-14T04:19:36.601Z,96669.22
2022-12-14T04:22:47.388Z,96676.31
2022-12-14T04:26:05.148Z,96675.34
2022-12-14T04:29:29.483Z,96660.94
2022-12-14T04:32:42.775Z,96659.75
2022-12-14T04:35:46.455Z,96652.50
2022-12-14T04:38:54.748Z,96658.47
2022-12-14T04:42:01.863Z,96662.59
2022-12-14T04:45:09.275Z,96661.66
2022-12-14T04:48:21.649Z,96656.22
2022-12-14T04:51:30.204Z,96666.59
2022-12-14T04:54:41.805Z,96651.34
2022-12-14T04:57:49.650Z,96647.91
2022-12-14T05:01:12.571Z,96639.25
2022-12-14T05:04:25.756Z,96626.16
2022-12-14T05:07:43.471Z,96632.03
2022-12-14T05:11:23.188Z,96637.84
2022-12-14T05:14:34.701Z,96633.16
2022-12-14T05:17:38.728Z,96644.56
2022-12-14T05:20:41.547Z,96632.19
2022-12-14T05:23:44.306Z,96618.31
2022-12-14T05:26:48.619Z,96629.09
2022-12-14T05:29:51.744Z,96628.44
2022-12-14T05:32:54.757Z,96613.72
2022-12-14T05:35:57.924Z,96615.41
2022-12-14T05:39:01.003Z,96617.28
2022-12-14T05:42:05.606Z,96614.91
2022-12-14T05:45:11.092Z,96621.78
2022-12-14T05:48:13.973Z,96606.69
2022-12-14T05:51:16.870Z,96606.38
2022-12-14T05:54:19.624Z,96602.97
2022-12-14T05:57:23.825Z,96591.13
2022-12-14T06:00:27.251Z,96584.03
2022-12-14T06:03:30.396Z,96583.44
2022-12-14T06:06:34.607Z,96578.72
2022-12-14T06:09:37.410Z,96582.00
2022-12-14T06:12:41.856Z,96582.31
2022-12-14T06:15:44.803Z,96589.44
2022-12-14T06:18:49.824Z,96584.94
2022-12-14T06:21:55.809Z,96585.25
2022-12-14T06:24:58.518Z,96589.88
2022-12-14T06:28:03.220Z,96585.50
2022-12-14T06:31:07.565Z,96580.63
2022-12-14T06:34:11.460Z,96573.22
2022-12-14T06:37:14.864Z,96569.72
2022-12-14T06:40:17.695Z,96568.91
2022-12-14T06:43:21.802Z,96565.91
2022-12-14T06:46:25.418Z,96562.78
2022-12-14T06:49:28.741Z,96558.47
2022-12-14T06:52:31.507Z,96546.06
2022-12-14T06:55:34.285Z,96550.03
2022-12-14T06:58:38.809Z,96535.94
2022-12-14T07:01:42.479Z,96543.84
2022-12-14T07:04:45.599Z,96535.22
2022-12-14T07:07:48.742Z,96516.03
2022-12-14T07:10:52.130Z,96527.50
2022-12-14T07:13:57.005Z,96524.94
2022-12-14T07:16:59.672Z,96529.41
2022-12-14T07:20:02.425Z,96510.44
2022-12-14T07:23:05.188Z,96522.78
2022-12-14T07:26:09.854Z,96512.13
2022-12-14T07:29:15.114Z,96509.25
2022-12-14T07:32:17.846Z,96506.72
2022-12-14T07:35:20.762Z,96503.59
2022-12-14T07:38:23.735Z,96505.59
2022-12-14T07:41:30.827Z,96507.16
2022-12-14T07:44:35.112Z,96502.25
2022-12-14T07:47:38.150Z,96503.09
2022-12-14T07:50:40.984Z,96495.22
2022-12-14T07:53:44.340Z,96491.47
2022-12-14T07:56:47.237Z,96479.75
2022-12-14T07:59:57.111Z,96478.81
2022-12-14T08:03:00.396Z,96472.13
2022-12-14T08:06:05.853Z,96474.75
2022-12-14T08:09:11.449Z,96475.84
2022-12-14T08:12:14.332Z,96480.47
2022-12-14T08:15:18.538Z,96475.75
2022-12-14T08:18:21.558Z,96476.13
2022-12-14T08:21:24.959Z,96473.22
2022-12-14T08:24:27.644Z,96470.59
2022-12-14T08:27:31.380Z,96473.00
2022-12-14T08:30:41.370Z,96468.59
2022-12-14T08:33:45.177Z,96462.59
2022-12-14T08:36:47.965Z,96455.03
2022-12-14T08:39:50.876Z,96477.25
2022-12-14T08:42:53.669Z,96498.44
2022-12-14T08:45:58.264Z,96496.03
2022-12-14T08:49:01.581Z,96481.03
2022-12-14T08:52:04.359Z,96481.28
2022-12-14T08:55:08.106Z,96473.69
2022-12-14T08:58:11.454Z,96474.97
2022-12-14T09:01:17.694Z,96468.91
2022-12-14T09:04:20.632Z,96469.69
2022-12-14T09:07:23.399Z,96476.25
2022-12-14T09:10:26.144Z,96474.78
2022-12-14T09:13:29.960Z,96469.50
2022-12-14T09:16:34.705Z,96465.91
2022-12-14T09:19:37.464Z,96463.44
2022-12-14T09:22:40.341Z,96459.72
2022-12-14T09:25:43.087Z,96460.81
2022-12-14T09:28:47.667Z,96455.25
2022-12-14T09:31:52.076Z,96455.75
2022-12-14T09:34:54.896Z,96449.69
2022-12-14T09:37:58.043Z,96453.00
2022-12-14T09:41:06.928Z,96442.72
2022-12-14T09:44:18.662Z,96442.03
2022-12-14T09:47:29.144Z,96452.06
2022-12-14T09:50:32.445Z,96448.34
2022-12-14T09:53:37.348Z,96462.00
2022-12-14T09:56:41.389Z,96452.88
2022-12-14T09:59:44.361Z,96456.00
2022-12-14T10:03:10.461Z,96446.47
2022-12-14T10:06:28.893Z,96454.66
2022-12-14T10:09:40.508Z,96452.75
2022-12-14T10:12:53.264Z,96451.38
2022-12-14T10:16:09.143Z,96446.41
2022-12-14T10:19:28.842Z,96439.88
2022-12-14T10:22:37.038Z,96436.94
2022-12-14T10:25:40.980Z,96422.00
2022-12-14T10:28:50.406Z,96429.84
2022-12-14T10:32:00.634Z,96436.41
2022-12-14T10:35:14.782Z,96426.84
2022-12-14T10:38:24.137Z,96420.28
2022-12-14T10:41:39.506Z,96413.41
2022-12-14T10:45:09.680Z,96416.41
2022-12-14T10:48:40.909Z,96405.97
2022-12-14T10:51:50.027Z,96407.78
2022-12-14T10:54:56.215Z,96408.88
2022-12-14T10:57:59.087Z,96415.25
2022-12-14T11:01:01.895Z,96411.63
2022-12-14T11:04:05.660Z,96415.38
2022-12-14T11:07:12.322Z,96422.03
2022-12-14T11:10:17.988Z,96416.56
2022-12-14T11:13:22.286Z,96406.66
2022-12-14T11:16:35.372Z,96406.50
2022-12-14T11:19:39.197Z,96404.38
2022-12-14T11:22:47.105Z,96403.03
2022-12-14T11:25:51.829Z,96410.41
2022-12-14T11:28:55.973Z,96412.22
2022-12-14T11:31:59.026Z,96420.91
2022-12-14T11:35:01.783Z,96412.53
2022-12-14T11:38:06.744Z,96414.41
2022-12-14T11:41:11.993Z,96402.84
2022-12-14T11:44:27.185Z,96400.75
2022-12-14T11:47:29.933Z,96405.72
2022-12-14T11:50:32.758Z,96400.41
2022-12-14T11:53:37.197Z,96403.91
2022-12-14T11:56:40.162Z,96406.63
2022-12-14T11:59:48.540Z,96389.50
2022-12-14T12:03:00.245Z,96390.09
2022-12-14T12:06:07.291Z,96391.72
2022-12-14T12:09:28.452Z,96393.63
2022-12-14T12:12:34.671Z,96402.66
2022-12-14T12:15:40.995Z,96396.06
2022-12-14T12:18:47.851Z,96402.97
2022-12-14T12:21:50.761Z,96402.16
2022-12-14T12:28:27.111Z,96404.56
2022-12-14T12:31:33.735Z,96408.25
2022-12-14T12:34:43.866Z,96419.34
2022-12-14T12:37:51.189Z,96418.31
2022-12-14T12:41:02.997Z,96406.13
2022-12-14T12:44:22.998Z,96409.00
2022-12-14T12:47:38.449Z,96421.41
2022-12-14T12:50:52.246Z,96425.41
2022-12-14T12:54:00.149Z,96426.69
2022-12-14T12:57:06.890Z,96431.38
2022-12-14T13:00:17.159Z,96437.41
2022-12-14T13:03:23.925Z,96437.41
2022-12-14T13:06:32.058Z,96442.69
2022-12-14T13:09:42.958Z,96449.25
2022-12-14T13:12:50.301Z,96453.44
2022-12-14T13:15:56.426Z,96457.09
2022-12-14T13:19:48.635Z,96466.56
2022-12-14T13:22:29.858Z,96447.75
2022-12-14T13:25:52.070Z,96446.66
2022-12-14T13:29:01.296Z,96439.56
2022-12-14T13:32:12.084Z,96443.56
2022-12-14T13:35:37.952Z,96440.91
2022-12-14T13:38:59.943Z,96446.47
2022-12-14T13:42:08.620Z,96442.53
2022-12-14T13:45:19.611Z,96456.50
2022-12-14T13:48:25.938Z,96463.13
2022-12-14T13:51:30.930Z,96462.59
2022-12-14T13:54:39.352Z,96474.41
2022-12-14T13:57:42.821Z,96477.81
2022-12-14T14:01:01.976Z,96484.13
2022-12-14T14:04:22.341Z,96486.78
2022-12-14T14:07:49.823Z,96485.69
2022-12-14T14:11:02.486Z,96497.31
2022-12-14T14:14:36.072Z,96493.09
2022-12-14T14:17:42.681Z,96493.03
2022-12-14T14:20:47.645Z,96510.06
2022-12-14T14:23:56.146Z,96498.78
2022-12-14T14:27:02.170Z,96498.22
2022-12-14T14:30:24.237Z,96512.25
2022-12-14T14:33:50.339Z,96517.78
2022-12-14T14:36:53.417Z,96521.91
2022-12-14T14:40:58.333Z,96531.69
2022-12-14T14:43:59.044Z,96530.97
2022-12-14T14:47:07.488Z,96547.63
2022-12-14T14:50:23.017Z,96542.06
2022-12-14T14:53:32.739Z,96545.44
2022-12-14T14:56:37.668Z,96559.47
2022-12-14T14:59:51.025Z,96566.09
2022-12-14T15:02:56.123Z,96575.72
2022-12-14T15:06:00.695Z,96576.78
2022-12-14T15:09:07.166Z,96594.75
2022-12-14T15:12:25.850Z,96598.69
2022-12-14T15:15:36.966Z,96614.50
2022-12-14T15:18:39.767Z,96618.72
2022-12-14T15:21:44.087Z,96620.97
2022-12-14T15:24:49.205Z,96625.94
2022-12-14T15:27:52.684Z,96632.50
2022-12-14T15:30:57.396Z,96635.94
2022-12-14T15:34:01.653Z,96639.19
2022-12-14T15:37:06.233Z,96633.03
2022-12-14T15:40:15.064Z,96643.59
2022-12-14T15:43:20.864Z,96649.97
2022-12-14T15:46:27.206Z,96647.41
2022-12-14T15:49:30.060Z,96650.38
2022-12-14T15:52:34.333Z,96662.13
2022-12-14T15:55:41.153Z,96671.94
2022-12-14T15:58:45.163Z,96682.81
2022-12-14T16:01:55.047Z,96681.53
2022-12-14T16:05:03.746Z,96683.56
2022-12-14T16:08:10.319Z,96685.41
2022-12-14T16:11:19.569Z,96689.69
2022-12-14T16:14:25.766Z,96681.78
2022-12-14T16:17:32.256Z,96693.09
2022-12-14T16:20:37.780Z,96692.00
2022-12-14T16:23:45.799Z,96691.59
2022-12-14T16:26:56.617Z,96702.78
2022-12-14T16:30:17.911Z,96704.56
2022-12-14T16:33:22.298Z,96701.06
2022-12-14T16:36:26.641Z,96699.28
2022-12-14T16:39:35.636Z,96711.81
2022-12-14T16:42:38.724Z,96723.63
2022-12-14T16:46:09.492Z,96728.91
2022-12-14T16:49:21.272Z,96730.56
2022-12-14T16:52:27.309Z,96724.53
2022-12-14T16:55:31.404Z,96736.75
2022-12-14T16:58:36.154Z,96740.84
2022-12-14T17:01:42.157Z,96738.50
2022-12-14T17:04:45.435Z,96752.16
2022-12-14T17:07:48.271Z,96750.78
2022-12-14T17:10:55.978Z,96740.66
2022-12-14T17:13:58.824Z,96762.38
2022-12-14T17:17:02.573Z,96766.34
2022-12-14T17:20:13.686Z,96769.47
2022-12-14T17:23:18.858Z,96770.59
2022-12-14T17:26:26.624Z,96775.56
2022-12-14T17:29:31.054Z,96766.91
2022-12-14T17:32:34.185Z,96766.59
2022-12-14T17:35:37.470Z,96770.28
2022-12-14T17:38:40.632Z,96778.84
2022-12-14T17:41:46.793Z,96773.63
2022-12-14T17:44:53.234Z,96780.13
2022-12-14T17:47:56.887Z,96783.00
2022-12-14T17:51:00.241Z,96788.97
2022-12-14T17:54:03.404Z,96785.78
2022-12-14T17:57:14.698Z,96787.06
2022-12-14T18:00:36.561Z,96790.59
2022-12-14T18:03:39.384Z,96782.34
2022-12-14T18:06:42.356Z,96795.28
2022-12-14T18:09:45.145Z,96792.09
2022-12-14T18:12:52.265Z,96799.44
2022-12-14T18:15:55.482Z,96805.19
2022-12-14T18:18:58.390Z,96811.81
2022-12-14T18:22:01.154Z,96819.56
2022-12-14T18:25:04.369Z,96815.81
2022-12-14T18:28:10.249Z,96819.31
2022-12-14T18:31:20.428Z,96803.34
2022-12-14T18:34:23.411Z,96804.06
2022-12-14T18:37:31.219Z,96803.97
2022-12-14T18:40:35.657Z,96806.06
2022-12-14T18:43:43.632Z,96811.31
2022-12-14T18:46:49.433Z,96807.25
2022-12-14T18:49:52.493Z,96811.81
2022-12-14T18:52:56.343Z,96821.16
2022-12-14T18:55:59.202Z,96829.63
2022-12-14T18:59:03.655Z,96833.44
2022-12-14T19:02:06.534Z,96827.16
2022-12-14T19:05:10.127Z,96831.16
2022-12-14T19:08:13.188Z,96839.94
2022-12-14T19:11:28.676Z,96847.09
2022-12-14T19:14:32.891Z,96851.31
2022-12-14T19:17:35.652Z,96856.59
2022-12-14T19:20:38.439Z,96858.34
2022-12-14T19:23:41.209Z,96864.19
2022-12-14T19:26:44.161Z,96848.63
2022-12-14T19:29:53.741Z,96848.56
2022-12-14T19:32:59.227Z,96844.41
2022-12-14T19:36:05.731Z,96853.41
2022-12-14T19:39:08.712Z,96852.63
2022-12-14T19:42:11.405Z,96845.50
2022-12-14T19:45:16.826Z,96850.44
2022-12-14T19:48:19.962Z,96858.53
2022-12-14T19:51:22.839Z,96866.25
2022-12-14T19:54:25.706Z,96869.94
2022-12-14T19:57:28.509Z,96878.97
2022-12-14T20:00:32.857Z,96871.22
2022-12-14T20:03:36.780Z,96866.19
2022-12-14T20:06:40.185Z,96864.28
2022-12-14T20:09:42.877Z,96866.81
2022-12-14T20:12:45.596Z,96871.94
2022-12-14T20:15:50.829Z,96865.94
2022-12-14T20:18:53.973Z,96878.22
2022-12-14T20:21:56.810Z,96886.84
2022-12-14T20:24:59.659Z,96896.34
2022-12-14T20:28:02.587Z,96904.56
2022-12-14T20:31:09.101Z,96909.91
2022-12-14T20:34:11.855Z,96903.63
2022-12-14T20:37:14.628Z,96909.34
2022-12-14T20:40:17.445Z,96912.72
2022-12-14T20:43:20.616Z,96910.09
2022-12-14T20:46:33.344Z,96916.25
2022-12-14T20:49:38.769Z,96918.13
2022-12-14T20:52:41.580Z,96931.44
2022-12-14T20:55:45.369Z,96916.34
2022-12-14T20:58:49.116Z,96914.03
2022-12-14T21:01:56.583Z,96911.97
2022-12-14T21:04:59.875Z,96910.88
2022-12-14T21:08:03.349Z,96918.78
2022-12-14T21:11:20.367Z,96911.09
2022-12-14T21:14:25.699Z,96905.69
2022-12-14T21:17:31.306Z,96909.41
2022-12-14T21:20:34.121Z,96905.44
2022-12-14T21:23:36.867Z,96909.59
2022-12-14T21:26:40.526Z,96912.78
2022-12-14T21:29:43.448Z,96920.56
2022-12-14T21:32:50.191Z,96911.91
2022-12-14T21:35:52.869Z,96923.69
2022-12-14T21:38:56.228Z,96926.41
2022-12-14T21:42:12.933Z,96932.41
2022-12-14T21:45:16.065Z,96948.03
2022-12-14T21:48:20.095Z,96934.88
2022-12-14T21:51:22.860Z,96937.78
2022-12-14T21:54:26.771Z,96937.22
2022-12-14T21:57:50.319Z,96936.66
2022-12-14T22:00:53.490Z,96948.09
2022-12-14T22:03:57.681Z,96926.78
2022-12-14T22:07:01.572Z,96937.22
2022-12-14T22:10:04.844Z,96946.97
2022-12-14T22:13:07.652Z,96952.78
2022-12-14T22:16:11.552Z,96945.00
2022-12-14T22:19:18.788Z,96946.03
2022-12-14T22:22:21.610Z,96949.69
2022-12-14T22:25:24.762Z,96949.78
2022-12-14T22:28:27.647Z,96950.28
2022-12-14T22:31:30.782Z,96945.69
2022-12-14T22:34:35.094Z,96944.19
2022-12-14T22:37:37.832Z,96938.59
2022-12-14T22:40:40.533Z,96935.84
2022-12-14T22:43:44.750Z,96944.09
2022-12-14T22:46:47.997Z,96930.34
2022-12-14T22:49:52.269Z,96940.31
2022-12-14T22:52:55.013Z,96944.66
2022-12-14T22:56:10.357Z,96937.28
2022-12-14T22:59:16.691Z,96949.28
2022-12-14T23:02:20.105Z,96952.81
2022-12-14T23:05:24.350Z,96952.38
2022-12-14T23:08:27.150Z,96964.81
2022-12-14T23:11:47.326Z,96961.63
2022-12-14T23:15:08.163Z,96962.91
2022-12-14T23:18:28.550Z,96956.50
2022-12-14T23:21:50.340Z,96969.88
2022-12-14T23:25:10.583Z,96960.88
2022-12-14T23:28:30.664Z,96965.66
2022-12-14T23:31:51.204Z,96970.81
2022-12-14T23:35:11.161Z,96976.41
2022-12-14T23:38:32.672Z,96962.09
2022-12-14T23:41:52.926Z,96961.63
2022-12-14T23:45:13.408Z,96951.19
2022-12-14T23:48:33.649Z,96957.03
2022-12-14T23:51:54.393Z,96956.91
2022-12-14T23:55:16.251Z,96959.00
2022-12-14T23:58:36.510Z,96968.63
